Slide Mountain Weather observations

Data are for 10 minute period ending at time listed.
 Day   Time   Solar   Ave.   Ave.  Ave.  Vector  Max.    Baro.  
  of    of     Rad.   Air    Rel.  Wind   Wind   Wind   Press.  
Year   Day            Temp.  Hum.  Speed  Dir.   Gust           
2017   (PST)  Kw/m2    F      %     mph   deg.    mph     mb.   
-----------------------------------------------------------------
  19   16:50   0.01   16.7    93   10.4   305     13.4    697.8 
  19   17:00   0.00   16.7    93   10.0   305     13.8    697.8 
  19   17:10   0.00   16.7    93    8.7   305     11.8    697.8 
  19   17:20   0.00   16.6    93   10.0   305     13.6    697.8 
  19   17:30   0.00   16.3    93   10.5   305     12.9    697.7 
  19   17:40   0.00   16.1    93   12.2   305     15.3    697.6 
  19   17:50   0.00   15.9    93   12.0   305     16.0    697.4 
  19   18:00   0.00   15.4    92   13.9   305     17.4    697.1 
  19   18:10   0.00   15.0    92   14.7   305     17.6    697.0 
  19   18:20   0.00   15.0    92   14.1   305     17.8    697.0 
  19   18:30   0.00   14.9    92   13.3   305     16.5    696.9 
  19   18:40   0.00   15.0    92   13.0   305     15.6    696.9 
  19   18:50   0.00   15.1    93   13.2   305     17.0    696.8 
  19   19:00   0.00   15.2    93   14.2   305     16.8    696.5 
  19   19:10   0.00   15.2    92   14.5   305     17.4    696.3 
  19   19:20   0.00   15.1    92   14.6   305     17.8    696.1 
  19   19:30   0.00   15.1    93   14.9   305     18.7    695.7 
  19   19:40   0.00   15.2    93   14.8   305     19.5    695.8 
  19   19:50   0.00   15.4    93   13.6   305     16.9    695.9 
  19   20:00   0.00   15.6    93   12.2   305     15.8    696.0 
  19   20:10   0.00   15.7    93   12.5   305     15.2    695.9 
  19   20:20   0.00   15.9    93   13.5   305     16.5    696.0 
  19   20:30   0.00   16.1    93   13.4   305     18.0    695.8 
  19   20:40   0.00   16.2    93   13.9   305     16.7    695.7 
  19   20:50   0.00   16.2    93   13.8   305     17.6    695.6 
  19   21:00   0.00   16.3    93   13.5   305     16.9    695.6 
  19   21:10   0.00   16.4    93   13.9   305     17.4    695.6 
  19   21:20   0.00   16.4    93   13.4   305     16.5    695.5 
  19   21:30   0.00   16.4    93   12.5   305     15.6    695.5 
  19   21:40   0.00   16.2    93   12.7   305     15.8    695.2 
  19   21:50   0.00   16.1    93   11.5   305     15.5    695.4 
  19   22:00   0.00   16.0    93    7.5   305     11.5    695.6 
  19   22:10   0.00   16.0    93    6.0   305      7.8    695.8 
  19   22:20   0.00   16.0    93    5.8   305      7.9    695.7 
  19   22:30   0.00   16.0    93    6.8   305      9.0    695.2 
  19   22:40   0.00   16.0    93    8.4   305     10.9    695.1 
  19   22:50   0.00   16.0    93    9.2   305     11.8    695.2 
  19   23:00   0.00   16.0    93    7.2   305      9.0    695.0 
  19   23:10   0.00   16.0    93    6.5   305      9.1    694.8 
  19   23:20   0.00   16.1    93    6.5   305      9.4    694.5 
  19   23:30   0.00   16.3    93    7.2   305     10.7    694.3 
  19   23:40   0.00   16.4    93    7.0   305      9.4    694.1 
  19   23:50   0.00   16.5    93    6.7   305      9.9    693.9 
  20    0:00   0.00   16.6    93    9.2   305     13.7    693.3 
  20    0:10   0.00   16.6    93    9.2   305     14.2    693.4 
  20    0:20   0.00   16.5    93   11.5   305     14.2    692.8 
  20    0:30   0.00   16.2    93   11.3   305     14.7    692.4 
  20    0:40   0.00   15.8    93   12.3   305     15.6    692.2 
  20    0:50   0.00   15.5    92   12.4   305     16.1    692.0 
  20    1:00   0.00   15.3    92   12.2   305     16.5    692.0 
  20    1:10   0.00   15.3    92   10.4   305     14.1    692.0 
  20    1:20   0.00   15.3    92    9.3   305     14.5    691.9 
  20    1:30   0.00   15.3    93    9.4   305     12.4    691.5 
  20    1:40   0.00   15.4    93    9.4   305     12.2    691.5 
  20    1:50   0.00   15.5    93    8.0   305     11.6    691.5 
  20    2:00   0.00   15.6    93    7.0   305      9.8    691.4 
  20    2:10   0.00   15.8    93    5.8   305      9.1    691.6 
  20    2:20   0.00   16.0    93    5.6   305      7.2    691.7 
  20    2:30   0.00   16.1    93    4.6   305      7.2    691.7 
  20    2:40   0.00   16.4    93    5.0   305      7.0    691.4 
  20    2:50   0.00   16.5    93    4.9   305      8.1    691.3 
  20    3:00   0.00   16.6    93    5.9   305      8.9    691.2 
  20    3:10   0.00   16.7    93    4.6   305      7.0    691.2 
  20    3:20   0.00   16.8    93    6.1   305      9.2    691.1 
  20    3:30   0.00   16.9    93    5.3   305      7.8    691.0 
  20    3:40   0.00   17.0    93    5.4   305      7.4    690.9 
  20    3:50   0.00   17.0    93    4.4   305      6.2    690.8 
  20    4:00   0.00   17.1    93    4.6   305      6.1    690.5 
  20    4:10   0.00   17.1    93    4.8   305      7.2    690.4 
  20    4:20   0.00   17.1    93    4.7   305      6.7    690.2 
  20    4:30   0.00   17.1    93    6.4   305     10.5    690.0 
  20    4:40   0.00   17.1    93    6.4   305      8.6    689.9 
  20    4:50   0.00   17.2    93    4.6   305      6.5    690.0 
  20    5:00   0.00   17.2    93    3.5   305      8.5    689.9 
  20    5:10   0.00   17.1    93    3.4   305      7.9    689.7 
  20    5:20   0.00   17.1    93    1.3   305      3.9    689.4 
  20    5:30   0.00   17.2    93    1.9   305      3.4    689.1 
  20    5:40   0.00   17.2    94    0.7   305      3.2    689.1 
  20    5:50   0.00   17.3    94    0.4   305      2.3    688.9 
  20    6:00   0.00   17.4    94    1.3   305      3.7    688.7 
  20    6:10   0.00   17.5    94    0.2   305      1.6    688.6 
  20    6:20   0.00   17.6    94    0.1   305      0.1    688.7 
  20    6:30   0.00   17.6    94    0.1   305      0.1    688.7 
  20    6:40   0.00   17.6    94    0.1   305      0.1    688.5 
  20    6:50   0.00   17.6    94    0.1   305      0.1    688.2 
  20    7:00   0.00   17.7    94    0.1   305      0.1    688.2 
  20    7:10   0.00   17.7    94    0.6   305      5.7    687.9 
  20    7:20   0.00   17.8    94    4.7   305      7.6    687.7 
  20    7:30   0.01   17.9    94    5.5   305      9.1    687.4 
  20    7:40   0.01   18.1    94    6.5   305     13.1    687.1 
  20    7:50   0.01   18.4    94    6.5   305      9.7    686.9 
  20    8:00   0.02   18.6    94    5.4   305      8.8    687.0 
  20    8:10   0.03   18.8    94    3.7   305      6.7    687.1 
  20    8:20   0.04   18.9    95    1.0   305      5.3    687.2 
  20    8:30   0.04   19.1    95    0.1   305      0.1    687.3 
  20    8:40   0.05   19.1    95    0.1   305      0.2    687.3 
  20    8:50   0.05   19.2    95    0.1   305      0.3    687.3 
  20    9:00   0.05   19.1    95    0.1   305      0.1    687.2 
  20    9:10   0.06   19.1    95    0.1   305      0.1    687.2 
  20    9:20   0.06   19.2    95    0.1   305      0.1    687.1 
  20    9:30   0.06   19.3    95    0.1   305      0.3    687.2 
  20    9:40   0.11   19.3    95    0.1   305      0.1    687.0 
  20    9:50   0.13   19.4    95    0.1   305      0.1    686.9 
  20   10:00   0.19   19.4    95    0.1   305      0.1    687.0 
  20   10:10   0.17   19.6    95    0.1   305      0.1    686.9 
  20   10:20   0.16   19.7    95    0.1   305      0.1    686.8 
  20   10:30   0.16   19.7    95    0.1   305      0.1    687.1 
  20   10:40   0.28   19.8    96    0.1   305      0.2    687.0 
  20   10:50   0.28   20.2    96    0.1   305      0.2    686.7 
  20   11:00   0.21   20.5    96    0.1   305      0.3    686.5 
  20   11:10   0.19   20.5    96    0.1   305      0.2    686.4 
  20   11:20   0.19   20.4    96    0.1   305      0.1    686.4 
  20   11:30   0.23   20.3    96    0.1   305      0.1    686.3 
  20   11:40   0.22   20.3    96    0.1   305      0.1    686.3 
  20   11:50   0.28   20.4    96    0.1   305      0.1    686.1 
  20   12:00   0.24   20.6    96    0.1   305      0.1    685.9 
  20   12:10   0.23   20.8    96    0.1   305      0.1    685.9 
  20   12:20   0.23   21.0    96    0.1   305      0.2    685.8 
  20   12:30   0.21   21.1    96    0.1   305      0.2    685.4 
  20   12:40   0.26   21.1    96    0.1   305      0.1    685.3 
  20   12:50   0.33   21.1    96    0.1   305      0.2    685.1 
  20   13:00   0.26   21.3    96    0.1   305      0.2    685.0 
  20   13:10   0.23   21.4    96    0.1   305      0.2    685.1 
  20   13:20   0.24   21.4    96    0.1   305      0.2    684.9 
  20   13:30   0.23   21.3    96    0.1   305      0.1    684.9 
  20   13:40   0.24   21.2    96    0.1   305      0.2    684.9 
  20   13:50   0.18   21.2    96    0.1   305      0.2    684.9 
  20   14:00   0.14   21.0    96    0.1   305      0.2    684.9 
  20   14:10   0.16   20.6    96    0.1   305      0.2    685.1 
  20   14:20   0.17   20.4    96    0.1   305      0.1    685.2 
  20   14:30   0.12   20.2    96    0.1   305      0.2    685.2 
  20   14:40   0.08   19.9    95    0.1   305      0.1    685.2 
  20   14:50   0.10   19.5    95    0.1   305      0.1    685.1 
  20   15:00   0.10   19.1    95    0.1   305      0.1    685.2 
  20   15:10   0.06   18.8    94    0.1   305      0.1    685.1 
  20   15:20   0.07   18.5    94    0.1   305      0.2    684.9 
  20   15:30   0.07   18.1    94    0.1   305      0.1    684.9 
  20   15:40   0.07   17.7    94    0.1   305      0.1    684.9 
  20   15:50   0.08   17.5    94    0.1   305      0.1    685.0 
  20   16:00   0.04   17.4    94    0.1   305      0.2    684.9 
  20   16:10   0.04   17.2    94    0.1   305      0.1    684.8 
  20   16:20   0.02   17.0    93    0.1   305      0.1    685.0 
  20   16:30   0.02   16.8    93    0.1   305      0.1    685.1 
  20   16:40   0.01   16.6    93    0.1   305      0.1    685.2 

Return to Slide Mountain graphs page.


Western Regional Climate Center,wrcc@dri.edu